sensor_id;sensor_type;location;lat;lon;timestamp;temperature;humidity
4564;DHT22;2294;51.818;8.484;2023-02-24T00:01:52;12.20;99.90
4564;DHT22;2294;51.818;8.484;2023-02-24T00:04:26;12.00;99.90
4564;DHT22;2294;51.818;8.484;2023-02-24T00:06:54;12.00;99.90
4564;DHT22;2294;51.818;8.484;2023-02-24T00:09:22;12.00;99.90
4564;DHT22;2294;51.818;8.484;2023-02-24T00:11:53;12.00;99.90
4564;DHT22;2294;51.818;8.484;2023-02-24T00:14:22;12.00;99.90
4564;DHT22;2294;51.818;8.484;2023-02-24T00:16:51;12.00;99.90
4564;DHT22;2294;51.818;8.484;2023-02-24T00:19:20;12.10;99.90
4564;DHT22;2294;51.818;8.484;2023-02-24T00:21:49;12.10;99.90
4564;DHT22;2294;51.818;8.484;2023-02-24T00:24:18;12.00;99.90
4564;DHT22;2294;51.818;8.484;2023-02-24T00:26:49;12.20;99.90
4564;DHT22;2294;51.818;8.484;2023-02-24T00:29:19;12.20;99.90
4564;DHT22;2294;51.818;8.484;2023-02-24T00:31:49;12.20;99.90
4564;DHT22;2294;51.818;8.484;2023-02-24T00:34:21;12.10;99.90
4564;DHT22;2294;51.818;8.484;2023-02-24T00:36:50;12.20;99.90
4564;DHT22;2294;51.818;8.484;2023-02-24T00:39:16;12.20;99.90
4564;DHT22;2294;51.818;8.484;2023-02-24T00:41:43;12.30;99.90
4564;DHT22;2294;51.818;8.484;2023-02-24T00:44:12;12.30;99.90
4564;DHT22;2294;51.818;8.484;2023-02-24T00:46:41;12.30;99.90
4564;DHT22;2294;51.818;8.484;2023-02-24T00:49:11;12.20;99.90
4564;DHT22;2294;51.818;8.484;2023-02-24T00:51:43;12.20;99.90
4564;DHT22;2294;51.818;8.484;2023-02-24T00:54:12;12.00;99.90
4564;DHT22;2294;51.818;8.484;2023-02-24T00:56:40;12.00;99.90
4564;DHT22;2294;51.818;8.484;2023-02-24T00:59:08;12.20;99.90
4564;DHT22;2294;51.818;8.484;2023-02-24T01:01:36;12.10;99.90
4564;DHT22;2294;51.818;8.484;2023-02-24T01:04:04;11.90;99.90
4564;DHT22;2294;51.818;8.484;2023-02-24T01:06:36;12.00;99.90
4564;DHT22;2294;51.818;8.484;2023-02-24T01:09:03;11.90;99.90
4564;DHT22;2294;51.818;8.484;2023-02-24T01:11:35;11.80;99.90
4564;DHT22;2294;51.818;8.484;2023-02-24T01:14:21;12.00;99.90
4564;DHT22;2294;51.818;8.484;2023-02-24T01:16:48;11.90;99.90
4564;DHT22;2294;51.818;8.484;2023-02-24T01:19:16;11.90;99.90
4564;DHT22;2294;51.818;8.484;2023-02-24T01:21:43;11.80;99.90
4564;DHT22;2294;51.818;8.484;2023-02-24T01:24:10;11.80;99.90
4564;DHT22;2294;51.818;8.484;2023-02-24T01:26:39;11.50;99.90
4564;DHT22;2294;51.818;8.484;2023-02-24T01:29:05;11.70;99.90
4564;DHT22;2294;51.818;8.484;2023-02-24T01:31:34;11.50;99.90
4564;DHT22;2294;51.818;8.484;2023-02-24T01:34:02;11.50;99.90
4564;DHT22;2294;51.818;8.484;2023-02-24T01:36:31;11.30;99.90
4564;DHT22;2294;51.818;8.484;2023-02-24T01:38:59;11.30;99.90
4564;DHT22;2294;51.818;8.484;2023-02-24T01:41:27;11.20;99.90
4564;DHT22;2294;51.818;8.484;2023-02-24T01:43:59;11.50;99.90
4564;DHT22;2294;51.818;8.484;2023-02-24T01:46:29;11.30;99.90
4564;DHT22;2294;51.818;8.484;2023-02-24T01:49:01;11.60;99.90
4564;DHT22;2294;51.818;8.484;2023-02-24T01:51:31;11.40;99.90
4564;DHT22;2294;51.818;8.484;2023-02-24T01:54:01;11.50;99.90
4564;DHT22;2294;51.818;8.484;2023-02-24T01:56:31;11.20;99.90
4564;DHT22;2294;51.818;8.484;2023-02-24T01:59:00;11.20;99.90
4564;DHT22;2294;51.818;8.484;2023-02-24T02:01:28;11.20;99.90
4564;DHT22;2294;51.818;8.484;2023-02-24T02:04:10;11.00;99.90
4564;DHT22;2294;51.818;8.484;2023-02-24T02:06:37;11.20;99.90
4564;DHT22;2294;51.818;8.484;2023-02-24T02:09:05;11.20;99.90
4564;DHT22;2294;51.818;8.484;2023-02-24T02:11:32;11.30;99.90
4564;DHT22;2294;51.818;8.484;2023-02-24T02:14:01;11.30;99.90
4564;DHT22;2294;51.818;8.484;2023-02-24T02:16:51;11.10;99.90
4564;DHT22;2294;51.818;8.484;2023-02-24T02:22:36;11.00;99.90
4564;DHT22;2294;51.818;8.484;2023-02-24T02:25:13;11.10;99.90
4564;DHT22;2294;51.818;8.484;2023-02-24T02:31:05;11.00;99.90
4564;DHT22;2294;51.818;8.484;2023-02-24T02:34:06;10.80;99.90
4564;DHT22;2294;51.818;8.484;2023-02-24T02:36:38;10.90;99.90
4564;DHT22;2294;51.818;8.484;2023-02-24T02:39:11;10.90;99.90
4564;DHT22;2294;51.818;8.484;2023-02-24T02:41:47;11.00;99.90
4564;DHT22;2294;51.818;8.484;2023-02-24T02:44:19;10.50;99.90
4564;DHT22;2294;51.818;8.484;2023-02-24T02:46:52;10.70;99.90
4564;DHT22;2294;51.818;8.484;2023-02-24T02:49:27;10.60;99.90
4564;DHT22;2294;51.818;8.484;2023-02-24T02:52:02;10.80;99.90
4564;DHT22;2294;51.818;8.484;2023-02-24T02:54:37;10.60;99.90
4564;DHT22;2294;51.818;8.484;2023-02-24T02:57:12;10.60;99.90
4564;DHT22;2294;51.818;8.484;2023-02-24T02:59:44;10.70;99.90
4564;DHT22;2294;51.818;8.484;2023-02-24T03:02:16;10.70;99.90
4564;DHT22;2294;51.818;8.484;2023-02-24T03:04:48;10.30;99.90
4564;DHT22;2294;51.818;8.484;2023-02-24T03:07:18;10.10;99.90
4564;DHT22;2294;51.818;8.484;2023-02-24T03:09:50;10.30;99.90
4564;DHT22;2294;51.818;8.484;2023-02-24T03:12:21;10.10;99.90
4564;DHT22;2294;51.818;8.484;2023-02-24T03:14:55;10.20;99.90
4564;DHT22;2294;51.818;8.484;2023-02-24T03:17:25;10.30;99.90
4564;DHT22;2294;51.818;8.484;2023-02-24T03:20:00;10.00;99.90
4564;DHT22;2294;51.818;8.484;2023-02-24T03:22:42;9.80;99.90
4564;DHT22;2294;51.818;8.484;2023-02-24T03:25:11;9.90;99.90
4564;DHT22;2294;51.818;8.484;2023-02-24T03:27:45;10.10;99.90
4564;DHT22;2294;51.818;8.484;2023-02-24T03:30:16;9.90;99.90
4564;DHT22;2294;51.818;8.484;2023-02-24T03:32:51;10.00;99.90
4564;DHT22;2294;51.818;8.484;2023-02-24T03:35:26;10.10;99.90
4564;DHT22;2294;51.818;8.484;2023-02-24T03:37:54;9.50;99.90
4564;DHT22;2294;51.818;8.484;2023-02-24T03:40:22;9.70;99.90
4564;DHT22;2294;51.818;8.484;2023-02-24T03:42:59;9.80;99.90
4564;DHT22;2294;51.818;8.484;2023-02-24T03:45:32;9.70;99.90
4564;DHT22;2294;51.818;8.484;2023-02-24T03:48:00;9.40;99.90
4564;DHT22;2294;51.818;8.484;2023-02-24T03:50:30;9.60;99.90
4564;DHT22;2294;51.818;8.484;2023-02-24T03:53:03;9.50;99.90
4564;DHT22;2294;51.818;8.484;2023-02-24T03:55:40;9.50;99.90
4564;DHT22;2294;51.818;8.484;2023-02-24T03:58:17;9.50;99.90
4564;DHT22;2294;51.818;8.484;2023-02-24T04:00:54;9.00;99.90
4564;DHT22;2294;51.818;8.484;2023-02-24T04:03:27;9.20;99.90
4564;DHT22;2294;51.818;8.484;2023-02-24T04:06:07;9.20;99.90
4564;DHT22;2294;51.818;8.484;2023-02-24T04:08:39;9.00;99.90
4564;DHT22;2294;51.818;8.484;2023-02-24T04:11:11;9.20;99.90
4564;DHT22;2294;51.818;8.484;2023-02-24T04:13:43;9.20;99.90
4564;DHT22;2294;51.818;8.484;2023-02-24T04:16:16;8.80;99.90
4564;DHT22;2294;51.818;8.484;2023-02-24T04:18:53;8.80;99.90
4564;DHT22;2294;51.818;8.484;2023-02-24T04:21:24;8.90;99.90
4564;DHT22;2294;51.818;8.484;2023-02-24T04:23:53;8.80;99.90
4564;DHT22;2294;51.818;8.484;2023-02-24T04:26:21;8.80;99.90
4564;DHT22;2294;51.818;8.484;2023-02-24T04:28:50;8.70;99.90
4564;DHT22;2294;51.818;8.484;2023-02-24T04:31:18;8.50;99.90
4564;DHT22;2294;51.818;8.484;2023-02-24T04:33:46;8.30;99.90
4564;DHT22;2294;51.818;8.484;2023-02-24T04:36:15;8.20;99.90
4564;DHT22;2294;51.818;8.484;2023-02-24T04:38:43;8.10;99.90
4564;DHT22;2294;51.818;8.484;2023-02-24T04:41:12;8.20;99.90
4564;DHT22;2294;51.818;8.484;2023-02-24T04:43:46;7.90;99.90
4564;DHT22;2294;51.818;8.484;2023-02-24T04:46:13;8.20;99.90
4564;DHT22;2294;51.818;8.484;2023-02-24T04:48:40;8.10;99.90
4564;DHT22;2294;51.818;8.484;2023-02-24T04:51:07;8.10;99.90
4564;DHT22;2294;51.818;8.484;2023-02-24T04:53:34;8.20;99.90
4564;DHT22;2294;51.818;8.484;2023-02-24T04:56:05;8.10;99.90
4564;DHT22;2294;51.818;8.484;2023-02-24T04:58:34;8.00;99.90
4564;DHT22;2294;51.818;8.484;2023-02-24T05:01:06;8.10;99.90
4564;DHT22;2294;51.818;8.484;2023-02-24T05:03:34;8.00;99.90
4564;DHT22;2294;51.818;8.484;2023-02-24T05:06:01;7.70;99.90
4564;DHT22;2294;51.818;8.484;2023-02-24T05:08:31;7.90;99.90
4564;DHT22;2294;51.818;8.484;2023-02-24T05:10:58;8.00;99.90
4564;DHT22;2294;51.818;8.484;2023-02-24T05:13:31;7.90;99.90
4564;DHT22;2294;51.818;8.484;2023-02-24T05:16:02;7.80;99.90
4564;DHT22;2294;51.818;8.484;2023-02-24T05:18:30;7.80;99.90
4564;DHT22;2294;51.818;8.484;2023-02-24T05:21:06;7.70;99.90
4564;DHT22;2294;51.818;8.484;2023-02-24T05:23:52;7.40;99.90
4564;DHT22;2294;51.818;8.484;2023-02-24T05:26:21;7.40;99.90
4564;DHT22;2294;51.818;8.484;2023-02-24T05:28:53;7.50;99.90
4564;DHT22;2294;51.818;8.484;2023-02-24T05:31:23;7.40;99.90
4564;DHT22;2294;51.818;8.484;2023-02-24T05:33:52;7.40;99.90
4564;DHT22;2294;51.818;8.484;2023-02-24T05:36:20;7.30;99.90
4564;DHT22;2294;51.818;8.484;2023-02-24T05:38:49;7.40;99.90
4564;DHT22;2294;51.818;8.484;2023-02-24T05:41:20;7.30;99.90
4564;DHT22;2294;51.818;8.484;2023-02-24T05:43:49;7.20;99.90
4564;DHT22;2294;51.818;8.484;2023-02-24T05:46:22;7.20;99.90
4564;DHT22;2294;51.818;8.484;2023-02-24T05:48:53;7.20;99.90
4564;DHT22;2294;51.818;8.484;2023-02-24T05:51:22;7.20;99.90
4564;DHT22;2294;51.818;8.484;2023-02-24T05:53:50;7.20;99.90
4564;DHT22;2294;51.818;8.484;2023-02-24T05:56:20;7.20;99.90
4564;DHT22;2294;51.818;8.484;2023-02-24T05:58:47;7.10;99.90
4564;DHT22;2294;51.818;8.484;2023-02-24T06:01:15;7.10;99.90
4564;DHT22;2294;51.818;8.484;2023-02-24T06:03:45;7.10;99.90
4564;DHT22;2294;51.818;8.484;2023-02-24T06:06:13;7.10;99.90
4564;DHT22;2294;51.818;8.484;2023-02-24T06:08:40;7.00;99.90
4564;DHT22;2294;51.818;8.484;2023-02-24T06:11:16;7.10;99.90
4564;DHT22;2294;51.818;8.484;2023-02-24T06:13:45;7.00;99.90
4564;DHT22;2294;51.818;8.484;2023-02-24T06:16:13;7.00;99.90
4564;DHT22;2294;51.818;8.484;2023-02-24T06:18:40;6.90;99.90
4564;DHT22;2294;51.818;8.484;2023-02-24T06:21:09;6.90;99.90
4564;DHT22;2294;51.818;8.484;2023-02-24T06:23:37;6.90;99.90
4564;DHT22;2294;51.818;8.484;2023-02-24T06:26:05;7.00;99.90
4564;DHT22;2294;51.818;8.484;2023-02-24T06:28:38;7.00;99.90
4564;DHT22;2294;51.818;8.484;2023-02-24T06:31:07;7.00;99.90
4564;DHT22;2294;51.818;8.484;2023-02-24T06:33:35;6.80;99.90
4564;DHT22;2294;51.818;8.484;2023-02-24T06:36:03;6.80;99.90
4564;DHT22;2294;51.818;8.484;2023-02-24T06:38:33;6.90;99.90
4564;DHT22;2294;51.818;8.484;2023-02-24T06:41:02;6.80;99.90
4564;DHT22;2294;51.818;8.484;2023-02-24T06:43:35;6.80;99.90
4564;DHT22;2294;51.818;8.484;2023-02-24T06:46:03;6.80;99.90
4564;DHT22;2294;51.818;8.484;2023-02-24T06:48:31;6.70;99.90
4564;DHT22;2294;51.818;8.484;2023-02-24T06:51:02;6.80;99.90
4564;DHT22;2294;51.818;8.484;2023-02-24T06:53:29;6.70;99.90
4564;DHT22;2294;51.818;8.484;2023-02-24T06:56:03;6.60;99.90
4564;DHT22;2294;51.818;8.484;2023-02-24T06:58:33;6.50;99.90
4564;DHT22;2294;51.818;8.484;2023-02-24T07:01:00;6.60;99.90
4564;DHT22;2294;51.818;8.484;2023-02-24T07:03:29;6.60;99.90
4564;DHT22;2294;51.818;8.484;2023-02-24T07:06:05;6.60;99.90
4564;DHT22;2294;51.818;8.484;2023-02-24T07:08:48;6.50;99.90
4564;DHT22;2294;51.818;8.484;2023-02-24T07:11:18;6.60;99.90
4564;DHT22;2294;51.818;8.484;2023-02-24T07:13:47;6.70;99.90
4564;DHT22;2294;51.818;8.484;2023-02-24T07:16:15;6.60;99.90
4564;DHT22;2294;51.818;8.484;2023-02-24T07:18:43;6.70;99.90
4564;DHT22;2294;51.818;8.484;2023-02-24T07:21:14;6.50;99.90
4564;DHT22;2294;51.818;8.484;2023-02-24T07:23:43;6.50;99.90
4564;DHT22;2294;51.818;8.484;2023-02-24T07:26:12;6.60;99.90
4564;DHT22;2294;51.818;8.484;2023-02-24T07:28:42;6.50;99.90
4564;DHT22;2294;51.818;8.484;2023-02-24T07:31:11;6.60;99.90
4564;DHT22;2294;51.818;8.484;2023-02-24T07:33:38;6.60;99.90
4564;DHT22;2294;51.818;8.484;2023-02-24T07:36:06;6.60;99.90
4564;DHT22;2294;51.818;8.484;2023-02-24T07:38:35;6.60;99.90
4564;DHT22;2294;51.818;8.484;2023-02-24T07:41:02;6.70;99.90
4564;DHT22;2294;51.818;8.484;2023-02-24T07:43:31;6.60;99.90
4564;DHT22;2294;51.818;8.484;2023-02-24T07:46:06;6.70;99.90
4564;DHT22;2294;51.818;8.484;2023-02-24T07:48:33;6.70;99.90
4564;DHT22;2294;51.818;8.484;2023-02-24T07:51:01;6.50;99.90
4564;DHT22;2294;51.818;8.484;2023-02-24T07:53:27;6.50;99.90
4564;DHT22;2294;51.818;8.484;2023-02-24T07:55:54;6.60;99.90
4564;DHT22;2294;51.818;8.484;2023-02-24T07:58:21;6.50;99.90
4564;DHT22;2294;51.818;8.484;2023-02-24T08:00:48;6.60;99.90
4564;DHT22;2294;51.818;8.484;2023-02-24T08:03:26;6.60;99.90
4564;DHT22;2294;51.818;8.484;2023-02-24T08:05:55;6.70;99.90
4564;DHT22;2294;51.818;8.484;2023-02-24T08:08:38;6.60;99.90
4564;DHT22;2294;51.818;8.484;2023-02-24T08:11:23;6.60;99.90
4564;DHT22;2294;51.818;8.484;2023-02-24T08:13:50;6.70;99.90
4564;DHT22;2294;51.818;8.484;2023-02-24T08:16:17;6.70;99.90
4564;DHT22;2294;51.818;8.484;2023-02-24T08:18:46;6.60;99.90
4564;DHT22;2294;51.818;8.484;2023-02-24T08:21:15;6.60;99.90
4564;DHT22;2294;51.818;8.484;2023-02-24T08:23:46;6.80;99.90
4564;DHT22;2294;51.818;8.484;2023-02-24T08:26:13;6.70;99.90
4564;DHT22;2294;51.818;8.484;2023-02-24T08:28:40;6.70;99.90
4564;DHT22;2294;51.818;8.484;2023-02-24T08:31:08;6.70;99.90
4564;DHT22;2294;51.818;8.484;2023-02-24T08:33:37;6.60;99.90
4564;DHT22;2294;51.818;8.484;2023-02-24T08:36:05;6.70;99.90
4564;DHT22;2294;51.818;8.484;2023-02-24T08:38:34;6.70;99.90
4564;DHT22;2294;51.818;8.484;2023-02-24T08:41:14;6.70;99.90
4564;DHT22;2294;51.818;8.484;2023-02-24T08:43:44;6.60;99.90
4564;DHT22;2294;51.818;8.484;2023-02-24T08:46:17;6.80;99.90
4564;DHT22;2294;51.818;8.484;2023-02-24T08:48:47;6.60;99.90
4564;DHT22;2294;51.818;8.484;2023-02-24T08:51:18;6.70;99.90
4564;DHT22;2294;51.818;8.484;2023-02-24T08:53:47;6.60;99.90
4564;DHT22;2294;51.818;8.484;2023-02-24T08:56:19;6.70;99.90
4564;DHT22;2294;51.818;8.484;2023-02-24T08:58:50;6.60;99.90
4564;DHT22;2294;51.818;8.484;2023-02-24T09:01:23;6.70;99.90
4564;DHT22;2294;51.818;8.484;2023-02-24T09:03:53;6.80;99.90
4564;DHT22;2294;51.818;8.484;2023-02-24T09:06:25;6.70;99.90
4564;DHT22;2294;51.818;8.484;2023-02-24T09:08:54;6.80;99.90
4564;DHT22;2294;51.818;8.484;2023-02-24T09:11:42;6.70;99.90
4564;DHT22;2294;51.818;8.484;2023-02-24T09:14:13;6.60;99.90
4564;DHT22;2294;51.818;8.484;2023-02-24T09:16:43;6.80;99.90
4564;DHT22;2294;51.818;8.484;2023-02-24T09:19:28;6.80;99.90
4564;DHT22;2294;51.818;8.484;2023-02-24T09:22:24;6.80;99.90
4564;DHT22;2294;51.818;8.484;2023-02-24T09:24:58;6.80;99.90
4564;DHT22;2294;51.818;8.484;2023-02-24T09:27:39;6.50;99.90
4564;DHT22;2294;51.818;8.484;2023-02-24T09:30:08;6.60;99.90
4564;DHT22;2294;51.818;8.484;2023-02-24T09:32:56;6.70;99.90
4564;DHT22;2294;51.818;8.484;2023-02-24T09:35:25;6.40;99.90
4564;DHT22;2294;51.818;8.484;2023-02-24T09:37:57;6.50;99.90
4564;DHT22;2294;51.818;8.484;2023-02-24T09:40:25;6.30;99.90
4564;DHT22;2294;51.818;8.484;2023-02-24T09:43:08;6.30;99.90
4564;DHT22;2294;51.818;8.484;2023-02-24T09:45:51;6.40;99.90
4564;DHT22;2294;51.818;8.484;2023-02-24T09:48:29;6.30;99.90
4564;DHT22;2294;51.818;8.484;2023-02-24T09:50:58;6.40;99.90
4564;DHT22;2294;51.818;8.484;2023-02-24T09:53:31;6.40;99.90
4564;DHT22;2294;51.818;8.484;2023-02-24T09:56:12;6.40;99.90
4564;DHT22;2294;51.818;8.484;2023-02-24T09:58:45;6.50;99.90
4564;DHT22;2294;51.818;8.484;2023-02-24T10:01:38;6.50;99.90
4564;DHT22;2294;51.818;8.484;2023-02-24T10:07:26;6.70;99.90
4564;DHT22;2294;51.818;8.484;2023-02-24T10:10:06;6.70;99.90
4564;DHT22;2294;51.818;8.484;2023-02-24T10:12:50;6.70;99.90
4564;DHT22;2294;51.818;8.484;2023-02-24T10:15:20;6.70;99.90
4564;DHT22;2294;51.818;8.484;2023-02-24T10:18:28;6.80;99.90
4564;DHT22;2294;51.818;8.484;2023-02-24T10:21:03;6.60;99.90
4564;DHT22;2294;51.818;8.484;2023-02-24T10:23:53;6.50;99.90
4564;DHT22;2294;51.818;8.484;2023-02-24T10:26:31;6.90;99.90
4564;DHT22;2294;51.818;8.484;2023-02-24T10:29:16;6.60;99.90
4564;DHT22;2294;51.818;8.484;2023-02-24T10:31:49;6.90;99.90
4564;DHT22;2294;51.818;8.484;2023-02-24T10:34:23;7.30;99.90
4564;DHT22;2294;51.818;8.484;2023-02-24T10:36:56;7.00;99.90
4564;DHT22;2294;51.818;8.484;2023-02-24T10:39:26;7.10;99.90
4564;DHT22;2294;51.818;8.484;2023-02-24T10:42:00;7.20;99.90
4564;DHT22;2294;51.818;8.484;2023-02-24T10:44:42;7.10;99.90
4564;DHT22;2294;51.818;8.484;2023-02-24T10:47:18;7.20;99.90
4564;DHT22;2294;51.818;8.484;2023-02-24T10:49:47;7.40;99.90
4564;DHT22;2294;51.818;8.484;2023-02-24T10:52:27;7.50;99.90
4564;DHT22;2294;51.818;8.484;2023-02-24T10:55:25;7.40;99.90
4564;DHT22;2294;51.818;8.484;2023-02-24T10:58:05;7.40;99.90
4564;DHT22;2294;51.818;8.484;2023-02-24T11:00:43;7.60;99.90
4564;DHT22;2294;51.818;8.484;2023-02-24T11:03:38;7.70;99.90
4564;DHT22;2294;51.818;8.484;2023-02-24T11:06:18;7.70;99.90
4564;DHT22;2294;51.818;8.484;2023-02-24T11:09:14;7.90;99.90
4564;DHT22;2294;51.818;8.484;2023-02-24T11:12:05;7.80;99.90
4564;DHT22;2294;51.818;8.484;2023-02-24T11:14:54;8.10;99.90
4564;DHT22;2294;51.818;8.484;2023-02-24T11:17:45;8.10;99.90
4564;DHT22;2294;51.818;8.484;2023-02-24T11:20:25;8.30;99.90
4564;DHT22;2294;51.818;8.484;2023-02-24T11:22:53;8.30;99.90
4564;DHT22;2294;51.818;8.484;2023-02-24T11:25:24;8.10;99.90
4564;DHT22;2294;51.818;8.484;2023-02-24T11:27:53;8.20;99.90
4564;DHT22;2294;51.818;8.484;2023-02-24T11:30:29;7.90;99.90
4564;DHT22;2294;51.818;8.484;2023-02-24T11:33:15;7.90;99.90
4564;DHT22;2294;51.818;8.484;2023-02-24T11:35:52;8.10;99.90
4564;DHT22;2294;51.818;8.484;2023-02-24T11:38:29;8.00;99.90
4564;DHT22;2294;51.818;8.484;2023-02-24T11:41:04;7.90;99.90
4564;DHT22;2294;51.818;8.484;2023-02-24T11:43:35;7.80;99.90
4564;DHT22;2294;51.818;8.484;2023-02-24T11:46:08;7.80;99.90
4564;DHT22;2294;51.818;8.484;2023-02-24T11:48:38;8.00;99.90
4564;DHT22;2294;51.818;8.484;2023-02-24T11:51:10;8.10;99.90
4564;DHT22;2294;51.818;8.484;2023-02-24T11:53:42;7.90;99.90
4564;DHT22;2294;51.818;8.484;2023-02-24T11:56:15;7.90;99.90
4564;DHT22;2294;51.818;8.484;2023-02-24T11:58:49;7.90;99.90
4564;DHT22;2294;51.818;8.484;2023-02-24T12:01:25;7.90;99.90
4564;DHT22;2294;51.818;8.484;2023-02-24T12:04:03;7.90;99.90
4564;DHT22;2294;51.818;8.484;2023-02-24T12:06:35;8.10;99.90
4564;DHT22;2294;51.818;8.484;2023-02-24T12:09:09;8.30;99.90
4564;DHT22;2294;51.818;8.484;2023-02-24T12:11:44;8.20;99.90
4564;DHT22;2294;51.818;8.484;2023-02-24T12:14:23;8.20;99.90
4564;DHT22;2294;51.818;8.484;2023-02-24T12:16:58;8.10;99.90
4564;DHT22;2294;51.818;8.484;2023-02-24T12:19:32;8.20;99.90
4564;DHT22;2294;51.818;8.484;2023-02-24T12:22:08;8.20;99.90
4564;DHT22;2294;51.818;8.484;2023-02-24T12:24:40;8.10;99.90
4564;DHT22;2294;51.818;8.484;2023-02-24T12:27:16;8.10;99.90
4564;DHT22;2294;51.818;8.484;2023-02-24T12:29:52;8.20;99.90
4564;DHT22;2294;51.818;8.484;2023-02-24T12:32:31;8.20;99.90
4564;DHT22;2294;51.818;8.484;2023-02-24T12:35:12;8.20;99.90
4564;DHT22;2294;51.818;8.484;2023-02-24T12:37:58;8.20;99.90
4564;DHT22;2294;51.818;8.484;2023-02-24T12:40:39;8.20;99.90
4564;DHT22;2294;51.818;8.484;2023-02-24T12:43:20;8.20;99.90
4564;DHT22;2294;51.818;8.484;2023-02-24T12:45:53;8.10;99.90
4564;DHT22;2294;51.818;8.484;2023-02-24T12:48:38;8.20;99.90
4564;DHT22;2294;51.818;8.484;2023-02-24T12:51:12;8.20;99.90
4564;DHT22;2294;51.818;8.484;2023-02-24T12:53:45;8.20;99.90
4564;DHT22;2294;51.818;8.484;2023-02-24T12:56:18;8.10;99.90
4564;DHT22;2294;51.818;8.484;2023-02-24T12:58:49;8.30;99.90
4564;DHT22;2294;51.818;8.484;2023-02-24T13:01:22;8.20;99.90
4564;DHT22;2294;51.818;8.484;2023-02-24T13:04:03;8.40;99.90
4564;DHT22;2294;51.818;8.484;2023-02-24T13:06:46;8.20;99.90
4564;DHT22;2294;51.818;8.484;2023-02-24T13:09:23;8.20;99.90
4564;DHT22;2294;51.818;8.484;2023-02-24T13:11:56;8.20;99.90
4564;DHT22;2294;51.818;8.484;2023-02-24T13:14:27;8.20;99.90
4564;DHT22;2294;51.818;8.484;2023-02-24T13:17:05;8.00;99.90
4564;DHT22;2294;51.818;8.484;2023-02-24T13:19:33;8.20;99.90
4564;DHT22;2294;51.818;8.484;2023-02-24T13:22:05;8.20;99.90
4564;DHT22;2294;51.818;8.484;2023-02-24T13:24:34;8.20;99.90
4564;DHT22;2294;51.818;8.484;2023-02-24T13:27:06;8.30;99.90
4564;DHT22;2294;51.818;8.484;2023-02-24T13:29:46;8.30;99.90
4564;DHT22;2294;51.818;8.484;2023-02-24T13:32:28;8.30;99.90
4564;DHT22;2294;51.818;8.484;2023-02-24T13:34:59;8.40;99.90
4564;DHT22;2294;51.818;8.484;2023-02-24T13:37:29;8.50;99.90
4564;DHT22;2294;51.818;8.484;2023-02-24T13:39:56;8.50;99.90
4564;DHT22;2294;51.818;8.484;2023-02-24T13:42:25;8.50;99.90
4564;DHT22;2294;51.818;8.484;2023-02-24T13:44:53;8.60;99.90
4564;DHT22;2294;51.818;8.484;2023-02-24T13:47:56;8.70;99.90
4564;DHT22;2294;51.818;8.484;2023-02-24T13:50:30;8.80;99.90
4564;DHT22;2294;51.818;8.484;2023-02-24T13:53:12;8.80;99.90
4564;DHT22;2294;51.818;8.484;2023-02-24T13:55:52;8.80;99.90
4564;DHT22;2294;51.818;8.484;2023-02-24T13:58:35;9.00;99.90
4564;DHT22;2294;51.818;8.484;2023-02-24T14:01:06;9.10;99.90
4564;DHT22;2294;51.818;8.484;2023-02-24T14:03:36;9.10;99.90
4564;DHT22;2294;51.818;8.484;2023-02-24T14:06:13;9.10;99.90
4564;DHT22;2294;51.818;8.484;2023-02-24T14:08:46;9.10;99.90
4564;DHT22;2294;51.818;8.484;2023-02-24T14:11:16;9.20;99.90
4564;DHT22;2294;51.818;8.484;2023-02-24T14:13:46;9.30;99.90
4564;DHT22;2294;51.818;8.484;2023-02-24T14:16:18;9.30;99.90
4564;DHT22;2294;51.818;8.484;2023-02-24T14:18:52;9.30;99.90
4564;DHT22;2294;51.818;8.484;2023-02-24T14:21:23;9.10;99.90
4564;DHT22;2294;51.818;8.484;2023-02-24T14:23:58;9.20;99.90
4564;DHT22;2294;51.818;8.484;2023-02-24T14:26:26;9.20;99.90
4564;DHT22;2294;51.818;8.484;2023-02-24T14:28:55;9.20;99.90
4564;DHT22;2294;51.818;8.484;2023-02-24T14:31:23;9.30;99.90
4564;DHT22;2294;51.818;8.484;2023-02-24T14:33:56;9.20;99.90
4564;DHT22;2294;51.818;8.484;2023-02-24T14:36:28;9.30;99.90
4564;DHT22;2294;51.818;8.484;2023-02-24T14:39:02;9.30;99.90
4564;DHT22;2294;51.818;8.484;2023-02-24T14:41:29;9.30;99.90
4564;DHT22;2294;51.818;8.484;2023-02-24T14:43:56;9.40;99.90
4564;DHT22;2294;51.818;8.484;2023-02-24T14:46:23;9.30;99.90
4564;DHT22;2294;51.818;8.484;2023-02-24T14:48:54;9.30;99.90
4564;DHT22;2294;51.818;8.484;2023-02-24T14:51:26;9.40;99.90
4564;DHT22;2294;51.818;8.484;2023-02-24T14:53:56;9.50;99.90
4564;DHT22;2294;51.818;8.484;2023-02-24T14:56:29;9.50;99.90
4564;DHT22;2294;51.818;8.484;2023-02-24T14:58:59;9.60;99.90
4564;DHT22;2294;51.818;8.484;2023-02-24T15:01:31;9.70;99.90
4564;DHT22;2294;51.818;8.484;2023-02-24T15:04:00;9.70;99.90
4564;DHT22;2294;51.818;8.484;2023-02-24T15:06:40;9.60;99.90
4564;DHT22;2294;51.818;8.484;2023-02-24T15:09:11;9.60;99.90
4564;DHT22;2294;51.818;8.484;2023-02-24T15:11:40;9.50;99.90
4564;DHT22;2294;51.818;8.484;2023-02-24T15:14:19;9.60;99.90
4564;DHT22;2294;51.818;8.484;2023-02-24T15:16:49;9.60;99.90
4564;DHT22;2294;51.818;8.484;2023-02-24T15:19:24;9.60;99.90
4564;DHT22;2294;51.818;8.484;2023-02-24T15:21:53;9.70;99.90
4564;DHT22;2294;51.818;8.484;2023-02-24T15:24:25;9.70;99.90
4564;DHT22;2294;51.818;8.484;2023-02-24T15:26:54;9.70;99.90
4564;DHT22;2294;51.818;8.484;2023-02-24T15:29:23;9.80;99.90
4564;DHT22;2294;51.818;8.484;2023-02-24T15:31:52;9.80;99.90
4564;DHT22;2294;51.818;8.484;2023-02-24T15:34:22;9.80;99.90
4564;DHT22;2294;51.818;8.484;2023-02-24T15:36:50;9.90;99.90
4564;DHT22;2294;51.818;8.484;2023-02-24T15:39:23;9.80;99.90
4564;DHT22;2294;51.818;8.484;2023-02-24T15:42:05;9.90;99.90
4564;DHT22;2294;51.818;8.484;2023-02-24T15:44:33;9.90;99.90
4564;DHT22;2294;51.818;8.484;2023-02-24T15:47:15;9.90;99.90
4564;DHT22;2294;51.818;8.484;2023-02-24T15:49:45;9.90;99.90
4564;DHT22;2294;51.818;8.484;2023-02-24T15:52:11;9.90;99.90
4564;DHT22;2294;51.818;8.484;2023-02-24T15:54:40;9.90;99.90
4564;DHT22;2294;51.818;8.484;2023-02-24T15:57:09;9.90;99.90
4564;DHT22;2294;51.818;8.484;2023-02-24T15:59:37;10.00;99.90
4564;DHT22;2294;51.818;8.484;2023-02-24T16:02:11;10.00;99.90
4564;DHT22;2294;51.818;8.484;2023-02-24T16:04:38;10.00;99.90
4564;DHT22;2294;51.818;8.484;2023-02-24T16:07:05;10.10;99.90
4564;DHT22;2294;51.818;8.484;2023-02-24T16:09:35;10.10;99.90
4564;DHT22;2294;51.818;8.484;2023-02-24T16:12:07;10.10;99.90
4564;DHT22;2294;51.818;8.484;2023-02-24T16:14:35;10.20;99.90
4564;DHT22;2294;51.818;8.484;2023-02-24T16:17:06;10.10;99.90
4564;DHT22;2294;51.818;8.484;2023-02-24T16:19:33;10.10;99.90
4564;DHT22;2294;51.818;8.484;2023-02-24T16:22:01;10.20;99.90
4564;DHT22;2294;51.818;8.484;2023-02-24T16:24:28;10.20;99.90
4564;DHT22;2294;51.818;8.484;2023-02-24T16:26:55;10.30;99.90
4564;DHT22;2294;51.818;8.484;2023-02-24T16:29:23;10.30;99.90
4564;DHT22;2294;51.818;8.484;2023-02-24T16:31:50;10.20;99.90
4564;DHT22;2294;51.818;8.484;2023-02-24T16:34:17;10.40;99.90
4564;DHT22;2294;51.818;8.484;2023-02-24T16:36:44;10.40;99.90
4564;DHT22;2294;51.818;8.484;2023-02-24T16:39:12;10.40;99.90
4564;DHT22;2294;51.818;8.484;2023-02-24T16:41:39;10.50;99.90
4564;DHT22;2294;51.818;8.484;2023-02-24T16:44:06;10.50;99.90
4564;DHT22;2294;51.818;8.484;2023-02-24T16:46:37;10.60;99.90
4564;DHT22;2294;51.818;8.484;2023-02-24T16:49:07;10.60;99.90
4564;DHT22;2294;51.818;8.484;2023-02-24T16:51:35;10.70;99.90
4564;DHT22;2294;51.818;8.484;2023-02-24T16:54:03;10.80;99.90
4564;DHT22;2294;51.818;8.484;2023-02-24T16:56:30;10.80;99.90
4564;DHT22;2294;51.818;8.484;2023-02-24T16:58:57;10.80;99.90